TAF EHSC
METAR EHSC
EHSC 280755Z AUTO 03028KT 9999 -DZ ///////// 06/03 Q0998 W11/H24=
EHSC 280725Z AUTO 01032KT 9999 ///////// 07/03 Q0997 W11/H22=
EHSC 280655Z AUTO 02027KT 360V060 9999 -RA ///////// 06/03 Q0997 RERA REDZ W11/H20=
EHSC 280625Z AUTO 04022KT 9999 ///////// 06/03 Q0997 RERA W11/H21=
EHSC 280555Z AUTO 01012G22KT 340V050 5000 SHRA ///////// 06/03 Q0997 W11/H22=
WC EHSC
WS EHSC
WV EHSC